createdAt,value
2022-08-26T00:02:57.704Z,77.20
2022-08-26T00:13:03.816Z,77.60
2022-08-26T00:23:24.154Z,78.20
2022-08-26T00:33:29.839Z,78.30
2022-08-26T00:43:46.152Z,79.00
2022-08-26T00:54:10.730Z,79.60
2022-08-26T01:04:19.648Z,78.80
2022-08-26T01:14:28.499Z,79.20
2022-08-26T01:24:37.350Z,80.30
2022-08-26T01:34:41.691Z,80.50
2022-08-26T01:44:52.346Z,80.10
2022-08-26T01:54:58.673Z,80.70
2022-08-26T02:05:10.853Z,82.00
2022-08-26T02:15:14.868Z,82.20
2022-08-26T02:25:29.428Z,82.40
2022-08-26T02:35:34.841Z,82.40
2022-08-26T02:45:41.166Z,83.30
2022-08-26T02:55:45.155Z,83.60
2022-08-26T03:05:55.105Z,84.00
2022-08-26T03:16:13.355Z,83.90
2022-08-26T03:26:18.425Z,84.00
2022-08-26T03:36:23.218Z,83.90
2022-08-26T03:46:30.024Z,84.40
2022-08-26T03:56:34.712Z,84.00
2022-08-26T04:06:47.988Z,84.40
2022-08-26T04:16:55.245Z,84.70
2022-08-26T04:27:03.332Z,85.70
2022-08-26T04:37:07.842Z,86.10
2022-08-26T04:47:13.208Z,86.20
2022-08-26T04:57:17.241Z,87.10
2022-08-26T05:07:22.365Z,87.10
2022-08-26T05:17:30.008Z,86.70
2022-08-26T05:27:38.047Z,86.30
2022-08-26T05:37:42.253Z,86.00
2022-08-26T05:47:49.510Z,87.00
2022-08-26T05:57:55.470Z,88.40
2022-08-26T06:08:14.099Z,89.90
2022-08-26T06:18:20.920Z,89.50
2022-08-26T06:28:27.046Z,89.90
2022-08-26T06:38:30.835Z,90.10
2022-08-26T06:48:36.110Z,90.20
2022-08-26T06:58:42.363Z,90.50
2022-08-26T07:08:47.898Z,90.10
2022-08-26T07:18:53.868Z,89.20
2022-08-26T07:29:00.925Z,87.80
2022-08-26T07:39:05.411Z,84.70
2022-08-26T07:49:11.482Z,83.80
2022-08-26T07:59:16.686Z,83.30
2022-08-26T08:09:22.417Z,83.50
2022-08-26T08:19:28.385Z,82.80
2022-08-26T08:29:42.201Z,82.10
2022-08-26T08:39:45.901Z,81.70
2022-08-26T08:49:51.224Z,80.60
2022-08-26T09:00:02.476Z,78.70
2022-08-26T09:10:28.895Z,77.00
2022-08-26T09:20:47.516Z,74.90
2022-08-26T09:31:13.117Z,73.80
2022-08-26T09:41:31.523Z,71.70
2022-08-26T09:51:36.682Z,69.80
2022-08-26T10:01:43.664Z,68.00
2022-08-26T10:11:55.187Z,67.10
2022-08-26T10:22:05.133Z,66.70
2022-08-26T10:32:17.789Z,65.50
2022-08-26T10:42:29.541Z,64.40
2022-08-26T10:52:50.243Z,62.90
2022-08-26T11:03:00.194Z,61.70
2022-08-26T11:13:06.850Z,61.30
2022-08-26T11:23:50.569Z,60.20
2022-08-26T11:33:59.474Z,58.20
2022-08-26T11:44:09.183Z,57.50
2022-08-26T11:54:17.589Z,57.10
2022-08-26T12:04:42.524Z,57.20
2022-08-26T12:14:47.606Z,59.10
2022-08-26T12:24:58.448Z,62.70
2022-08-26T12:45:11.542Z,64.40
2022-08-26T12:55:24.790Z,63.80
2022-08-26T13:05:34.070Z,62.30
2022-08-26T13:15:44.691Z,62.00
2022-08-26T13:25:49.368Z,60.90
2022-08-26T13:35:54.797Z,56.30
2022-08-26T13:45:58.642Z,53.30
2022-08-26T13:56:10.873Z,56.30
2022-08-26T14:06:15.271Z,55.60
2022-08-26T14:16:27.505Z,60.20
2022-08-26T14:26:31.593Z,60.60
2022-08-26T14:36:39.903Z,60.60
2022-08-26T14:46:47.705Z,57.60
2022-08-26T14:56:55.958Z,59.40
2022-08-26T15:07:01.780Z,60.60
2022-08-26T15:17:06.988Z,61.90
2022-08-26T15:27:10.803Z,61.70
2022-08-26T15:37:16.048Z,62.50
2022-08-26T15:47:20.127Z,65.20
2022-08-26T15:57:25.464Z,69.50
2022-08-26T16:07:30.806Z,72.00
2022-08-26T16:17:35.931Z,72.80
2022-08-26T16:27:39.748Z,72.90
2022-08-26T16:37:45.756Z,72.00
2022-08-26T16:47:50.760Z,73.00
2022-08-26T16:57:55.946Z,74.20
2022-08-26T17:08:01.612Z,75.10
2022-08-26T17:18:08.946Z,76.30
2022-08-26T17:28:13.633Z,76.90
2022-08-26T17:38:18.733Z,77.00
2022-08-26T17:48:22.465Z,77.40
2022-08-26T17:58:27.626Z,78.20
2022-08-26T18:08:33.214Z,79.10
2022-08-26T18:18:39.131Z,80.10
2022-08-26T18:28:42.905Z,81.60
2022-08-26T18:38:50.436Z,82.30
2022-08-26T18:48:56.804Z,84.40
2022-08-26T18:59:02.530Z,84.70
2022-08-26T19:09:11.872Z,84.50
2022-08-26T19:19:20.999Z,85.00
2022-08-26T19:29:29.519Z,85.10
2022-08-26T19:39:36.011Z,85.80
2022-08-26T19:49:40.139Z,85.90
2022-08-26T19:59:47.464Z,86.20
2022-08-26T20:09:51.299Z,86.60
2022-08-26T20:20:26.954Z,87.00
2022-08-26T20:30:37.445Z,87.70
2022-08-26T20:40:44.348Z,88.70
2022-08-26T20:50:49.184Z,88.80
2022-08-26T21:00:54.432Z,89.10
2022-08-26T21:10:58.318Z,89.50
2022-08-26T21:21:06.296Z,89.90
2022-08-26T21:31:13.345Z,90.10
2022-08-26T21:41:29.477Z,90.10
2022-08-26T21:51:36.318Z,90.10
2022-08-26T22:01:41.798Z,90.20
2022-08-26T22:11:46.378Z,90.30
2022-08-26T22:21:53.427Z,90.70
2022-08-26T22:31:57.272Z,91.00
2022-08-26T22:42:03.897Z,91.40
2022-08-26T22:52:07.692Z,91.90
2022-08-26T23:02:13.109Z,92.00
2022-08-26T23:12:16.967Z,92.00
2022-08-26T23:22:22.111Z,92.20
2022-08-26T23:32:25.907Z,92.50
2022-08-26T23:42:31.095Z,92.40
2022-08-26T23:52:52.112Z,92.90
